Time;durP1;ratioP1;P1;durP2;ratioP2;P2;SDS_P1;SDS_P2;PMS_P1;PMS_P2;Temp;Humidity;BMP_temperature;BMP_pressure;BME280_temperature;BME280_humidity;BME280_pressure;Samples;Min_cycle;Max_cycle;Signal;HPM_P1;HPM_P2
2024/01/08 00:00:26;;;;;;;6.07;4.43;;;;;;;2.71;50.52;97789.13;5055421;28;20187;-69
2024/01/08 00:02:51;;;;;;;6.20;4.40;;;;;;;2.79;50.63;97792.09;5064840;28;20245;-71
2024/01/08 00:05:17;;;;;;;4.90;4.37;;;;;;;2.72;49.63;97801.97;5059335;28;20212;-69
2024/01/08 00:07:42;;;;;;;4.20;3.80;;;;;;;2.82;49.89;97807.47;5068574;28;20191;-70
2024/01/08 00:10:08;;;;;;;4.97;4.40;;;;;;;2.94;50.31;97802.50;5041853;28;20841;-70
2024/01/08 00:12:34;;;;;;;4.60;4.13;;;;;;;3.03;50.01;97801.94;5062032;28;20444;-69
2024/01/08 00:14:59;;;;;;;3.80;3.50;;;;;;;2.95;48.97;97801.59;5072427;28;20194;-70
2024/01/08 00:17:25;;;;;;;4.30;3.80;;;;;;;2.83;48.38;97801.38;5055723;28;20213;-68
2024/01/08 00:19:50;;;;;;;5.20;3.93;;;;;;;2.71;48.22;97799.50;5067572;28;20190;-69
2024/01/08 00:22:16;;;;;;;7.27;4.33;;;;;;;2.59;48.24;97806.19;5080048;28;20268;-69
2024/01/08 00:24:41;;;;;;;5.00;4.30;;;;;;;2.75;48.83;97803.59;5070118;28;20218;-68
2024/01/08 00:27:07;;;;;;;3.97;3.67;;;;;;;2.60;48.16;97803.53;5067433;28;20204;-69
2024/01/08 00:29:32;;;;;;;5.73;4.10;;;;;;;2.74;48.61;97801.91;5072693;28;20706;-69
2024/01/08 00:31:57;;;;;;;4.30;3.90;;;;;;;2.79;48.45;97802.47;5071271;28;20294;-69
2024/01/08 00:34:27;;;;;;;4.83;4.13;;;;;;;2.94;48.53;97807.69;5073693;28;20189;-69
2024/01/08 00:36:52;;;;;;;6.70;4.90;;;;;;;3.02;48.89;97797.72;5068897;28;20183;-69
2024/01/08 00:39:18;;;;;;;5.20;3.90;;;;;;;2.79;48.09;97809.41;5073247;28;20943;-69
2024/01/08 00:41:43;;;;;;;4.20;3.80;;;;;;;2.86;47.38;97802.94;5077464;28;20295;-69
2024/01/08 00:44:08;;;;;;;4.33;3.93;;;;;;;2.78;48.14;97805.16;5069729;28;20290;-69
2024/01/08 00:46:34;;;;;;;4.40;4.00;;;;;;;2.66;47.58;97801.50;5068530;28;20269;-68
2024/01/08 00:49:00;;;;;;;4.53;4.13;;;;;;;2.74;48.49;97800.16;5069182;28;20190;-68
2024/01/08 00:51:25;;;;;;;4.60;3.93;;;;;;;2.64;48.01;97799.00;5079567;28;20431;-69
2024/01/08 00:53:52;;;;;;;6.80;4.00;;;;;;;2.68;48.20;97799.66;5071478;28;20257;-69
2024/01/08 00:56:18;;;;;;;4.13;3.60;;;;;;;2.65;48.17;97810.22;5031964;28;20266;-68
2024/01/08 00:58:44;;;;;;;4.10;3.70;;;;;;;2.57;48.57;97803.69;5070275;28;20433;-69
2024/01/08 01:01:10;;;;;;;5.20;4.30;;;;;;;2.71;48.67;97799.50;5065351;28;20206;-70
2024/01/08 01:03:36;;;;;;;5.87;4.77;;;;;;;2.64;48.45;97805.97;5074023;28;21232;-68
2024/01/08 01:06:02;;;;;;;4.23;3.83;;;;;;;2.64;48.67;97803.38;5043920;28;20429;-70
2024/01/08 01:08:27;;;;;;;4.87;4.37;;;;;;;2.53;48.61;97820.31;5083756;28;20185;-67
2024/01/08 01:10:52;;;;;;;4.50;4.10;;;;;;;2.46;47.94;97819.84;5079335;28;20261;-68
2024/01/08 01:13:18;;;;;;;4.70;4.30;;;;;;;2.53;48.08;97807.38;5083619;28;20331;-68
2024/01/08 01:15:43;;;;;;;4.97;4.47;;;;;;;2.58;48.22;97810.56;5081775;28;20189;-69
2024/01/08 01:18:15;;;;;;;5.80;4.33;;;;;;;2.46;48.11;97812.06;5064749;28;20546;-69
2024/01/08 01:20:41;;;;;;;5.67;4.60;;;;;;;2.51;48.39;97823.91;5067370;28;20425;-68
2024/01/08 01:23:06;;;;;;;4.93;4.33;;;;;;;2.47;48.24;97812.91;5076374;28;20649;-68
2024/01/08 01:25:32;;;;;;;4.83;4.27;;;;;;;2.37;47.91;97827.28;5064274;28;20186;-68
2024/01/08 01:27:57;;;;;;;6.30;4.60;;;;;;;2.49;47.93;97821.44;5060794;28;20244;-69
2024/01/08 01:30:23;;;;;;;4.73;4.33;;;;;;;2.54;48.28;97828.94;5072913;28;20716;-69
2024/01/08 01:32:48;;;;;;;6.63;5.00;;;;;;;2.55;47.87;97826.25;5057077;28;20207;-68
2024/01/08 01:35:14;;;;;;;6.13;4.57;;;;;;;2.59;47.51;97820.00;5072770;28;20215;-68
2024/01/08 01:37:41;;;;;;;5.20;4.23;;;;;;;2.38;47.65;97828.97;5065811;28;20216;-68
2024/01/08 01:40:08;;;;;;;5.30;4.70;;;;;;;2.23;47.98;97825.44;5065687;28;20273;-69
2024/01/08 01:42:33;;;;;;;5.63;5.00;;;;;;;2.29;47.47;97825.94;5061398;28;21237;-68
2024/01/08 01:44:59;;;;;;;5.10;4.20;;;;;;;2.40;47.43;97832.28;5059481;28;20499;-68
2024/01/08 01:47:24;;;;;;;5.13;4.37;;;;;;;2.44;47.80;97824.28;5063515;28;20247;-69
2024/01/08 01:49:50;;;;;;;4.90;4.40;;;;;;;2.52;47.68;97826.41;5078171;28;20186;-70
2024/01/08 01:52:16;;;;;;;5.93;4.70;;;;;;;2.39;47.55;97825.47;5067539;28;20305;-69
2024/01/08 01:54:43;;;;;;;6.13;4.90;;;;;;;2.49;48.10;97825.75;5065654;28;20200;-69
2024/01/08 01:57:08;;;;;;;4.37;3.97;;;;;;;2.63;47.75;97828.41;5065442;28;21238;-70
2024/01/08 01:59:34;;;;;;;5.60;4.40;;;;;;;2.79;47.56;97824.94;5078443;28;20444;-68
2024/01/08 02:02:00;;;;;;;5.53;5.00;;;;;;;2.94;47.91;97821.47;5059518;28;20203;-68
2024/01/08 02:04:28;;;;;;;5.47;4.70;;;;;;;2.91;47.08;97819.88;5066388;28;20433;-70
2024/01/08 02:06:54;;;;;;;5.17;4.23;;;;;;;2.90;46.97;97820.78;5067036;28;20428;-69
2024/01/08 02:09:19;;;;;;;5.77;5.17;;;;;;;2.93;47.23;97822.41;5072227;28;20448;-70
2024/01/08 02:11:45;;;;;;;7.60;5.20;;;;;;;3.05;47.14;97824.28;5058168;28;20210;-70
2024/01/08 02:14:11;;;;;;;5.40;4.57;;;;;;;3.04;46.61;97820.00;5070377;28;20681;-68
2024/01/08 02:16:37;;;;;;;5.83;5.20;;;;;;;2.97;46.33;97816.09;5068665;28;20233;-69
2024/01/08 02:19:02;;;;;;;6.77;4.90;;;;;;;3.01;46.54;97819.38;5062262;28;20536;-68
2024/01/08 02:21:28;;;;;;;4.83;4.33;;;;;;;2.96;46.10;97809.25;5069968;28;20278;-69
2024/01/08 02:23:53;;;;;;;7.10;4.73;;;;;;;2.95;45.93;97806.75;5077450;28;20251;-68
2024/01/08 02:26:19;;;;;;;5.80;4.73;;;;;;;3.07;46.97;97812.06;5077599;28;20201;-70
2024/01/08 02:28:45;;;;;;;4.50;4.07;;;;;;;3.11;46.40;97806.69;5056031;28;20190;-69
2024/01/08 02:31:10;;;;;;;5.70;4.87;;;;;;;3.07;46.71;97800.84;5044367;28;20253;-68
2024/01/08 02:33:35;;;;;;;5.70;4.50;;;;;;;2.96;46.88;97798.06;5050277;28;20301;-69
2024/01/08 02:36:01;;;;;;;6.50;5.10;;;;;;;2.95;46.37;97804.16;5046772;28;20248;-70
2024/01/08 02:38:26;;;;;;;5.17;4.60;;;;;;;2.97;46.53;97807.50;5056554;28;20197;-69
2024/01/08 02:40:52;;;;;;;5.47;4.97;;;;;;;2.85;46.72;97802.13;5054359;28;20304;-68
2024/01/08 02:43:17;;;;;;;6.23;5.00;;;;;;;2.93;46.38;97801.69;5050958;28;20218;-68
2024/01/08 02:45:43;;;;;;;5.77;4.90;;;;;;;2.97;46.25;97804.91;5051109;28;20179;-70
2024/01/08 02:48:08;;;;;;;5.47;4.80;;;;;;;3.03;46.63;97804.53;5051947;28;20672;-69
2024/01/08 02:50:34;;;;;;;5.20;4.70;;;;;;;3.00;46.22;97807.34;5054969;28;20545;-69
2024/01/08 02:52:59;;;;;;;6.50;4.87;;;;;;;3.01;46.43;97811.59;5058912;28;20639;-70
2024/01/08 02:55:25;;;;;;;6.63;5.53;;;;;;;2.91;46.20;97811.28;5055049;28;20198;-67
2024/01/08 02:57:50;;;;;;;5.67;5.10;;;;;;;2.90;46.59;97815.63;5039554;28;20624;-70
2024/01/08 03:00:16;;;;;;;7.00;5.57;;;;;;;3.00;47.10;97820.28;5050634;28;20577;-71
2024/01/08 03:02:41;;;;;;;5.57;4.90;;;;;;;3.03;46.34;97820.94;5044461;28;20207;-70
2024/01/08 03:05:07;;;;;;;5.27;4.70;;;;;;;3.07;46.25;97819.00;5046806;28;20199;-69
2024/01/08 03:14:16;;;;;;;5.30;4.73;;;;;;;3.14;46.38;97832.41;5029631;28;20429;-68
2024/01/08 03:16:41;;;;;;;6.17;4.87;;;;;;;3.15;45.94;97824.53;5056459;28;21095;-69
2024/01/08 03:19:07;;;;;;;6.00;4.83;;;;;;;3.13;46.28;97820.38;5053526;28;20456;-69
2024/01/08 03:21:32;;;;;;;6.13;5.17;;;;;;;3.12;45.79;97824.75;5038470;28;20195;-68
2024/01/08 03:23:58;;;;;;;6.73;5.43;;;;;;;3.09;46.12;97819.75;5043280;28;20191;-68
2024/01/08 03:26:23;;;;;;;6.10;4.57;;;;;;;2.84;45.93;97825.50;5053283;28;20237;-69
2024/01/08 03:28:48;;;;;;;7.13;5.23;;;;;;;2.83;46.49;97819.50;5054053;28;20187;-69
2024/01/08 03:31:14;;;;;;;5.83;5.00;;;;;;;2.96;46.44;97821.38;5036263;28;20274;-69
2024/01/08 03:33:39;;;;;;;6.17;5.17;;;;;;;2.91;46.23;97817.28;5045023;28;20207;-69
2024/01/08 03:36:09;;;;;;;6.77;5.17;;;;;;;3.06;46.46;97810.41;5047698;28;20233;-68
2024/01/08 03:38:35;;;;;;;6.50;5.50;;;;;;;3.14;46.16;97815.13;5041059;28;20882;-68
2024/01/08 03:41:00;;;;;;;5.97;5.23;;;;;;;3.18;46.03;97816.59;5037347;28;20433;-68
2024/01/08 03:43:25;;;;;;;5.73;4.97;;;;;;;3.07;45.79;97813.81;5058186;28;20240;-69
2024/01/08 03:45:51;;;;;;;5.20;4.73;;;;;;;3.03;45.92;97812.31;5073541;28;20588;-70
2024/01/08 03:48:16;;;;;;;6.73;5.10;;;;;;;2.82;46.17;97804.88;5067119;28;20186;-69
2024/01/08 03:50:42;;;;;;;5.80;5.17;;;;;;;2.79;46.58;97810.22;5064584;28;20265;-68
2024/01/08 03:53:08;;;;;;;5.90;5.20;;;;;;;2.74;46.43;97809.69;5071210;28;20226;-67
2024/01/08 03:55:34;;;;;;;5.57;4.60;;;;;;;2.86;46.78;97814.16;5073742;28;20261;-69
2024/01/08 03:57:59;;;;;;;5.70;4.50;;;;;;;2.96;46.95;97805.84;5058589;28;20704;-69
2024/01/08 04:00:25;;;;;;;5.03;4.53;;;;;;;2.99;46.75;97814.25;5062020;28;20468;-69
2024/01/08 04:02:50;;;;;;;5.73;4.30;;;;;;;2.99;46.41;97813.44;5056513;28;20203;-68
2024/01/08 04:05:17;;;;;;;12.00;4.27;;;;;;;3.03;46.51;97810.56;5059115;28;20195;-69
2024/01/08 04:07:42;;;;;;;6.30;5.00;;;;;;;3.10;46.76;97818.81;5064632;28;20460;-68
2024/01/08 04:10:08;;;;;;;9.40;4.77;;;;;;;3.11;47.14;97822.22;5052519;28;20198;-69
2024/01/08 04:12:40;;;;;;;5.80;4.57;;;;;;;2.97;46.29;97821.28;5053142;28;20215;-69
2024/01/08 04:15:08;;;;;;;5.13;4.63;;;;;;;2.95;46.52;97817.13;5061832;28;20484;-68
2024/01/08 04:17:33;;;;;;;4.90;4.40;;;;;;;2.83;46.73;97809.16;5042002;28;20497;-70
2024/01/08 04:19:59;;;;;;;5.73;4.50;;;;;;;2.94;46.54;97826.66;5049543;28;20222;-69
2024/01/08 04:22:24;;;;;;;5.47;4.83;;;;;;;2.89;46.48;97824.34;5038148;28;20213;-67
2024/01/08 04:24:50;;;;;;;5.27;4.37;;;;;;;2.94;46.69;97820.63;5045612;28;20179;-68
2024/01/08 04:27:15;;;;;;;5.20;4.40;;;;;;;2.94;46.79;97823.22;5034757;28;20232;-68
2024/01/08 04:29:40;;;;;;;6.80;5.00;;;;;;;2.78;46.20;97825.88;5034833;28;20266;-68
2024/01/08 04:32:06;;;;;;;5.73;4.93;;;;;;;2.87;46.69;97828.78;4993054;28;20217;-68
2024/01/08 04:34:31;;;;;;;4.93;4.43;;;;;;;2.87;46.10;97826.19;5053593;28;20843;-68
2024/01/08 04:36:57;;;;;;;5.30;4.63;;;;;;;3.04;45.89;97826.94;5041515;28;20214;-68
2024/01/08 04:39:22;;;;;;;4.50;4.10;;;;;;;3.10;46.29;97823.16;5038555;28;20710;-68
2024/01/08 04:41:48;;;;;;;5.10;4.47;;;;;;;3.09;46.17;97830.09;5051292;28;20581;-69
2024/01/08 04:44:13;;;;;;;5.17;4.67;;;;;;;3.13;46.70;97836.78;5046741;28;20247;-68
2024/01/08 04:46:41;;;;;;;7.17;4.70;;;;;;;3.03;46.17;97833.03;5050234;28;20221;-69
2024/01/08 04:49:06;;;;;;;5.43;4.93;;;;;;;2.98;45.63;97830.72;5055054;28;20190;-69
2024/01/08 04:51:33;;;;;;;5.40;4.87;;;;;;;3.02;46.04;97836.56;5050105;28;20444;-70
2024/01/08 04:54:00;;;;;;;5.10;4.37;;;;;;;3.11;45.91;97841.22;5055539;28;20225;-69
2024/01/08 04:56:27;;;;;;;5.23;4.63;;;;;;;3.01;45.19;97840.91;5048164;28;20541;-68
2024/01/08 04:58:53;;;;;;;5.60;4.50;;;;;;;2.99;45.66;97841.91;5045797;28;20448;-68
2024/01/08 05:01:19;;;;;;;5.90;4.90;;;;;;;2.92;45.78;97849.22;5050037;28;20445;-69
2024/01/08 05:03:45;;;;;;;4.80;4.20;;;;;;;2.73;45.62;97839.06;5048933;28;20625;-68
2024/01/08 05:06:11;;;;;;;5.50;4.97;;;;;;;2.89;46.11;97834.69;5039715;28;20421;-69
2024/01/08 05:08:38;;;;;;;6.30;5.20;;;;;;;2.78;46.09;97842.22;5056090;28;20274;-70
2024/01/08 05:11:05;;;;;;;6.27;5.30;;;;;;;2.74;45.83;97851.91;5046974;28;20425;-69
2024/01/08 05:13:30;;;;;;;6.73;4.80;;;;;;;2.56;46.09;97846.03;5044986;28;20499;-68
2024/01/08 05:15:56;;;;;;;7.23;5.40;;;;;;;2.70;46.61;97852.19;5056522;28;20455;-69
2024/01/08 05:18:21;;;;;;;6.30;5.10;;;;;;;2.67;46.70;97852.34;5047903;28;20203;-69
2024/01/08 05:20:47;;;;;;;5.20;4.70;;;;;;;2.72;46.74;97852.94;5053880;28;20214;-68
2024/01/08 05:23:12;;;;;;;6.50;5.40;;;;;;;2.87;46.71;97854.66;5050356;28;20353;-69
2024/01/08 05:25:38;;;;;;;11.97;8.43;;;;;;;2.85;46.19;97851.31;5052682;28;20302;-68
2024/01/08 05:28:05;;;;;;;28.20;15.63;;;;;;;2.85;45.66;97843.56;5049828;28;20211;-69
2024/01/08 05:30:30;;;;;;;11.57;7.97;;;;;;;2.90;46.21;97851.06;5051389;28;20198;-68
2024/01/08 05:32:56;;;;;;;6.63;5.37;;;;;;;2.88;45.87;97853.75;5051130;28;20500;-70
2024/01/08 05:35:21;;;;;;;9.93;7.67;;;;;;;2.84;45.61;97856.56;5045354;28;20202;-69
2024/01/08 05:37:47;;;;;;;7.30;6.03;;;;;;;2.80;46.22;97866.28;5039429;28;20209;-69
2024/01/08 05:40:12;;;;;;;8.73;7.23;;;;;;;2.87;46.55;97857.25;5054272;28;20269;-69
2024/01/08 05:42:38;;;;;;;7.10;5.27;;;;;;;2.78;46.53;97862.94;5045895;28;20203;-70
2024/01/08 05:45:04;;;;;;;6.57;5.80;;;;;;;2.65;46.82;97864.56;5049517;28;20249;-69
2024/01/08 05:47:29;;;;;;;5.90;5.30;;;;;;;2.72;47.44;97858.94;5035772;28;20409;-71
2024/01/08 05:49:55;;;;;;;7.00;5.80;;;;;;;2.74;46.91;97856.28;5048558;28;20767;-68
2024/01/08 05:52:21;;;;;;;7.03;5.33;;;;;;;2.57;46.89;97863.22;5046121;28;20360;-69
2024/01/08 05:54:46;;;;;;;8.67;5.67;;;;;;;2.58;47.23;97861.50;5048901;28;20202;-69
2024/01/08 05:57:11;;;;;;;7.27;6.00;;;;;;;2.51;47.19;97865.31;5053640;28;20463;-70
2024/01/08 05:59:38;;;;;;;6.40;5.73;;;;;;;2.61;47.15;97872.50;5040955;28;20640;-71
2024/01/08 06:02:04;;;;;;;5.83;5.10;;;;;;;2.63;47.27;97875.00;5049535;28;20210;-68
2024/01/08 06:04:29;;;;;;;7.83;5.83;;;;;;;2.73;47.12;97873.56;5056293;28;20440;-70
2024/01/08 06:06:56;;;;;;;7.10;5.63;;;;;;;2.66;46.27;97864.47;5044841;28;20240;-68
2024/01/08 06:09:21;;;;;;;6.50;5.70;;;;;;;2.62;46.72;97878.50;5052608;28;20198;-71
2024/01/08 06:11:47;;;;;;;7.33;6.37;;;;;;;2.45;45.22;97882.03;5053258;28;20897;-70
2024/01/08 06:14:12;;;;;;;6.57;5.63;;;;;;;2.34;45.81;97881.78;5053712;28;20199;-69
2024/01/08 06:16:37;;;;;;;7.10;6.00;;;;;;;2.45;45.96;97884.63;5040216;28;20302;-70
2024/01/08 06:19:03;;;;;;;6.03;5.13;;;;;;;2.32;45.57;97881.03;5037079;28;20199;-70
2024/01/08 06:21:28;;;;;;;7.30;6.43;;;;;;;2.24;45.35;97887.47;5052729;28;20190;-71
2024/01/08 06:23:54;;;;;;;6.97;4.80;;;;;;;2.10;45.02;97890.78;5008285;28;20199;-69
2024/01/08 06:26:20;;;;;;;6.10;4.70;;;;;;;2.29;45.28;97895.81;5048866;28;20725;-69
2024/01/08 06:28:45;;;;;;;6.03;5.20;;;;;;;2.24;45.17;97891.78;5049183;28;22216;-71
2024/01/08 06:31:12;;;;;;;5.57;5.00;;;;;;;2.29;45.14;97894.97;5058831;28;20469;-70
2024/01/08 06:33:37;;;;;;;5.67;5.07;;;;;;;2.26;45.20;97902.91;5047514;28;20375;-71
2024/01/08 06:36:04;;;;;;;11.87;5.60;;;;;;;2.38;44.88;97898.81;5053344;28;20515;-66
2024/01/08 06:38:29;;;;;;;7.40;5.23;;;;;;;2.34;45.03;97899.91;5026009;28;20297;-70
2024/01/08 06:40:54;;;;;;;7.60;5.80;;;;;;;2.35;44.96;97888.63;5052556;28;20509;-71
2024/01/08 06:43:20;;;;;;;9.70;4.90;;;;;;;2.30;45.16;97897.47;5049322;28;20302;-70
2024/01/08 06:45:45;;;;;;;6.20;5.03;;;;;;;2.28;44.62;97896.72;5051415;28;20277;-69
2024/01/08 06:48:11;;;;;;;7.73;4.80;;;;;;;2.34;44.44;97900.72;5054923;28;20251;-70
2024/01/08 06:50:38;;;;;;;6.60;5.60;;;;;;;2.30;44.67;97889.72;5045334;28;20246;-70
2024/01/08 06:53:03;;;;;;;8.50;5.77;;;;;;;2.34;44.55;97894.72;5049372;28;20990;-69
2024/01/08 06:55:28;;;;;;;9.33;7.10;;;;;;;2.48;44.90;97889.63;5055399;28;20631;-70
2024/01/08 06:57:54;;;;;;;6.03;5.10;;;;;;;2.38;44.17;97899.66;5058572;28;20296;-70
2024/01/08 07:00:20;;;;;;;6.70;5.37;;;;;;;2.18;43.27;97903.31;5051388;28;20223;-68
2024/01/08 07:02:45;;;;;;;5.60;5.00;;;;;;;2.14;43.75;97904.41;5047635;28;20219;-69
2024/01/08 07:05:11;;;;;;;5.40;4.90;;;;;;;2.12;43.95;97909.66;5045086;28;20282;-69
2024/01/08 07:07:37;;;;;;;6.47;5.33;;;;;;;2.15;44.06;97906.06;5040201;28;20195;-68
2024/01/08 07:10:04;;;;;;;6.60;5.60;;;;;;;2.22;44.54;97904.81;5043787;28;20417;-68
2024/01/08 07:12:29;;;;;;;5.43;4.67;;;;;;;2.24;44.15;97913.34;5042527;28;20256;-67
2024/01/08 07:14:55;;;;;;;6.00;5.40;;;;;;;2.11;43.67;97904.56;5038808;28;20811;-67
2024/01/08 07:17:21;;;;;;;6.80;5.33;;;;;;;2.00;43.61;97905.13;5031970;28;20477;-70
2024/01/08 07:19:46;;;;;;;5.10;4.60;;;;;;;2.02;44.08;97905.88;5049488;28;20192;-69
2024/01/08 07:22:12;;;;;;;10.90;4.73;;;;;;;2.12;43.92;97909.66;5032730;28;20215;-69
2024/01/08 07:24:37;;;;;;;8.20;5.13;;;;;;;2.15;43.85;97906.06;5051271;28;20273;-68
2024/01/08 07:27:03;;;;;;;5.70;4.60;;;;;;;2.04;43.77;97911.81;5039276;28;20215;-68
2024/01/08 07:29:28;;;;;;;5.10;4.60;;;;;;;2.00;43.93;97907.72;5028504;28;20254;-69
2024/01/08 07:31:54;;;;;;;7.17;4.87;;;;;;;2.01;44.39;97905.97;5042374;28;20253;-70
2024/01/08 07:34:19;;;;;;;6.93;5.30;;;;;;;2.05;44.71;97910.91;5032569;28;20289;-68
2024/01/08 07:36:45;;;;;;;6.00;5.20;;;;;;;2.16;44.32;97910.31;5057106;28;20245;-67
2024/01/08 07:39:14;;;;;;;6.83;5.30;;;;;;;2.18;44.29;97911.06;5038649;28;20207;-68
2024/01/08 07:41:41;;;;;;;7.07;5.17;;;;;;;2.28;44.63;97908.84;5047271;28;20277;-68
2024/01/08 07:44:06;;;;;;;7.00;5.50;;;;;;;2.28;44.62;97912.25;5034841;28;20517;-70
2024/01/08 07:46:32;;;;;;;6.53;4.80;;;;;;;2.19;43.73;97925.69;5035326;28;21218;-68
2024/01/08 07:48:58;;;;;;;4.80;4.30;;;;;;;2.14;44.13;97930.28;5042393;28;20769;-67
2024/01/08 07:51:24;;;;;;;5.40;4.80;;;;;;;2.21;44.26;97928.16;5045610;28;20215;-68
2024/01/08 07:53:50;;;;;;;6.20;5.00;;;;;;;2.35;43.63;97936.03;5036860;28;20453;-67
2024/01/08 07:56:16;;;;;;;5.73;4.57;;;;;;;2.27;43.33;97931.25;5036203;28;20438;-68
2024/01/08 07:58:41;;;;;;;5.33;4.60;;;;;;;2.36;43.84;97934.28;5034267;28;20439;-69
2024/01/08 08:01:12;;;;;;;5.23;4.37;;;;;;;2.44;43.40;97937.28;5038103;28;20288;-69
2024/01/08 08:03:38;;;;;;;7.90;6.50;;;;;;;2.46;43.34;97935.47;5041419;28;20241;-68
2024/01/08 08:06:03;;;;;;;12.40;9.10;;;;;;;2.43;43.80;97933.88;5039571;28;20446;-68
2024/01/08 08:08:31;;;;;;;8.80;5.27;;;;;;;2.44;43.63;97945.06;5050583;28;20711;-69
2024/01/08 08:10:58;;;;;;;7.40;6.03;;;;;;;2.46;43.64;97943.22;5054207;28;20182;-69
2024/01/08 08:13:24;;;;;;;8.10;5.70;;;;;;;2.52;43.77;97953.22;5039516;28;20557;-68
2024/01/08 08:15:49;;;;;;;8.30;6.40;;;;;;;2.51;43.95;97942.97;5050608;28;20835;-68
2024/01/08 08:18:14;;;;;;;8.57;6.03;;;;;;;2.53;43.89;97947.13;5050027;28;20289;-69
2024/01/08 08:20:40;;;;;;;5.10;4.60;;;;;;;2.47;43.36;97939.72;5046086;28;20187;-69
2024/01/08 08:23:05;;;;;;;6.77;5.23;;;;;;;2.49;43.57;97944.78;5047569;28;20230;-70
2024/01/08 08:25:31;;;;;;;6.97;5.40;;;;;;;2.55;43.50;97944.47;5049522;28;20179;-68
2024/01/08 08:27:56;;;;;;;6.83;5.47;;;;;;;2.49;43.82;97944.78;5048364;28;20191;-70
2024/01/08 08:30:24;;;;;;;8.60;6.90;;;;;;;2.43;43.37;97949.41;5051796;28;20214;-69
2024/01/08 08:32:50;;;;;;;9.13;7.67;;;;;;;2.40;43.15;97941.81;5047908;28;20609;-68
2024/01/08 08:35:16;;;;;;;8.17;6.63;;;;;;;2.43;43.26;97943.38;5046078;28;20425;-69
2024/01/08 08:37:41;;;;;;;13.53;7.10;;;;;;;2.42;43.68;97939.13;5048145;28;20511;-69
2024/01/08 08:40:07;;;;;;;7.50;5.93;;;;;;;2.23;43.43;97940.13;5049039;28;20219;-68
2024/01/08 08:42:33;;;;;;;7.57;6.33;;;;;;;2.21;43.55;97941.09;5048281;28;20209;-68
2024/01/08 08:44:58;;;;;;;6.33;5.50;;;;;;;2.05;43.46;97943.66;5048304;28;21025;-68
2024/01/08 08:47:24;;;;;;;10.23;7.73;;;;;;;2.22;44.09;97942.78;5044906;28;20720;-69
2024/01/08 08:49:49;;;;;;;7.87;6.27;;;;;;;2.25;43.56;97947.78;5048865;28;20514;-69
2024/01/08 08:52:14;;;;;;;6.53;5.40;;;;;;;2.05;43.59;97947.09;5039100;28;20238;-68
2024/01/08 08:54:40;;;;;;;6.30;5.17;;;;;;;1.91;43.25;97950.41;5048660;28;20581;-69
2024/01/08 08:57:05;;;;;;;6.37;4.50;;;;;;;1.97;44.03;97955.25;5050811;28;20194;-69
2024/01/08 08:59:31;;;;;;;6.80;5.37;;;;;;;2.02;43.71;97967.94;5053901;28;20219;-67
2024/01/08 09:01:57;;;;;;;6.93;5.00;;;;;;;1.87;43.92;97958.41;5045577;28;20238;-69
2024/01/08 09:04:23;;;;;;;7.93;4.60;;;;;;;1.95;44.25;97970.00;5049556;28;20616;-69
2024/01/08 09:06:48;;;;;;;21.90;14.40;;;;;;;2.01;44.44;97968.03;5051744;28;20424;-70
2024/01/08 09:09:14;;;;;;;9.20;6.50;;;;;;;1.90;43.72;97968.59;5052752;28;20274;-70
2024/01/08 09:11:40;;;;;;;8.00;6.30;;;;;;;1.75;43.62;97975.38;5051464;28;20706;-66
2024/01/08 09:14:07;;;;;;;16.23;9.80;;;;;;;1.75;44.28;97988.31;5047510;28;20209;-67
2024/01/08 09:16:33;;;;;;;7.30;6.20;;;;;;;1.73;44.23;97977.22;5046354;28;20215;-69
2024/01/08 09:18:58;;;;;;;10.47;7.23;;;;;;;1.78;44.29;97980.38;5047194;28;20444;-68
2024/01/08 09:21:24;;;;;;;17.03;9.80;;;;;;;1.89;45.18;97985.00;5048138;28;20221;-69
2024/01/08 09:23:49;;;;;;;16.70;8.90;;;;;;;1.91;44.40;97984.00;5042748;28;20214;-69
2024/01/08 09:26:15;;;;;;;12.03;6.57;;;;;;;1.87;44.48;97990.28;5052087;28;20244;-68
2024/01/08 09:28:41;;;;;;;11.30;7.30;;;;;;;1.96;44.55;97984.63;5059177;28;20185;-69
2024/01/08 09:31:07;;;;;;;9.40;7.37;;;;;;;2.12;44.69;97989.00;5044296;28;20430;-69
2024/01/08 09:33:32;;;;;;;7.40;4.93;;;;;;;2.22;44.87;97990.19;5041071;28;20226;-68
2024/01/08 09:35:58;;;;;;;7.03;4.90;;;;;;;2.33;44.36;97999.97;5050786;28;20425;-70
2024/01/08 09:38:26;;;;;;;5.70;4.30;;;;;;;2.35;44.02;97998.13;5053224;28;20198;-69
2024/01/08 09:40:51;;;;;;;6.70;5.30;;;;;;;2.36;44.57;97998.97;5049891;28;20233;-69
2024/01/08 09:43:19;;;;;;;5.20;4.53;;;;;;;2.39;44.23;97998.81;5061520;28;20440;-69
2024/01/08 09:45:50;;;;;;;6.10;5.27;;;;;;;2.43;44.51;98008.06;5041183;28;20300;-69
2024/01/08 09:48:16;;;;;;;5.90;5.00;;;;;;;2.46;44.15;98010.50;5043135;28;20951;-69
2024/01/08 09:50:41;;;;;;;8.27;5.73;;;;;;;2.42;44.07;98006.41;5052227;28;20426;-68
2024/01/08 09:53:07;;;;;;;10.73;6.07;;;;;;;2.53;44.38;97995.47;5060567;28;20301;-67
2024/01/08 09:55:32;;;;;;;9.77;6.60;;;;;;;2.64;44.35;98007.84;5067233;28;20186;-68
2024/01/08 09:57:58;;;;;;;10.70;6.20;;;;;;;2.68;44.77;98007.59;5052385;28;20603;-68
2024/01/08 10:00:24;;;;;;;9.80;5.63;;;;;;;2.29;43.10;98007.03;5043405;28;20209;-67
2024/01/08 10:02:56;;;;;;;10.30;7.07;;;;;;;2.29;43.98;98007.03;5045063;28;20211;-68
2024/01/08 10:05:22;;;;;;;10.90;7.40;;;;;;;2.41;44.09;97999.53;5049803;28;20436;-68
2024/01/08 10:07:47;;;;;;;9.90;6.00;;;;;;;2.36;43.48;98004.16;5066030;28;20428;-68
2024/01/08 10:10:13;;;;;;;6.80;5.90;;;;;;;2.43;44.00;98002.91;5041681;28;20821;-69
2024/01/08 10:12:38;;;;;;;7.47;5.80;;;;;;;2.38;43.79;97992.78;5054732;28;20203;-68
2024/01/08 10:15:05;;;;;;;11.40;6.83;;;;;;;2.52;44.40;97999.81;5048690;28;20182;-68
2024/01/08 10:17:31;;;;;;;6.07;5.00;;;;;;;2.40;43.43;97997.88;5057071;28;20558;-68
2024/01/08 10:20:08;;;;;;;9.60;7.10;;;;;;;2.45;43.28;97995.88;5045205;28;20456;-68
2024/01/08 10:22:34;;;;;;;10.87;7.60;;;;;;;2.35;43.23;97989.53;5056170;28;20810;-71
2024/01/08 10:25:03;;;;;;;9.03;5.30;;;;;;;2.22;43.18;97999.69;5047701;28;20516;-68
2024/01/08 10:27:29;;;;;;;6.20;4.77;;;;;;;2.25;43.35;97997.78;5050594;28;20175;-68
2024/01/08 10:29:54;;;;;;;8.40;5.83;;;;;;;2.28;43.87;97997.59;5041286;28;20880;-69
2024/01/08 10:32:22;;;;;;;7.20;5.03;;;;;;;2.32;43.08;97994.88;5050542;28;20541;-70
2024/01/08 10:34:49;;;;;;;5.80;5.20;;;;;;;2.18;42.95;97991.25;5064092;28;20182;-69
2024/01/08 10:37:15;;;;;;;9.50;7.67;;;;;;;2.27;43.56;97995.94;5047591;28;20449;-68
2024/01/08 10:39:40;;;;;;;6.40;5.30;;;;;;;2.20;43.02;97999.78;5042942;28;20521;-68
2024/01/08 10:42:06;;;;;;;6.57;4.93;;;;;;;2.23;43.26;97997.03;5036546;28;20212;-69
2024/01/08 10:44:31;;;;;;;7.53;5.67;;;;;;;2.38;43.20;97989.38;5050371;28;20183;-68
2024/01/08 10:46:58;;;;;;;9.20;7.17;;;;;;;2.48;43.59;97987.97;5041133;28;20271;-70
2024/01/08 10:49:33;;;;;;;6.10;5.00;;;;;;;2.49;43.12;97996.56;5045597;28;20214;-69
2024/01/08 10:52:25;;;;;;;6.83;5.33;;;;;;;2.53;43.14;97988.53;5043184;28;20445;-69
2024/01/08 10:54:50;;;;;;;8.70;5.97;;;;;;;2.66;43.06;97995.63;5058960;28;20513;-68
2024/01/08 10:57:18;;;;;;;8.33;6.70;;;;;;;2.66;43.10;97988.72;5049722;28;20556;-70
2024/01/08 10:59:44;;;;;;;8.20;5.57;;;;;;;2.64;42.92;97987.16;5025679;28;20856;-70
2024/01/08 11:02:14;;;;;;;8.20;6.13;;;;;;;2.70;42.87;97989.38;5000424;28;20447;-68
2024/01/08 11:04:42;;;;;;;7.43;5.47;;;;;;;2.76;43.01;97989.06;5049792;28;20494;-68
2024/01/08 11:07:08;;;;;;;18.43;11.40;;;;;;;2.68;42.58;97992.06;5040312;28;20931;-68
2024/01/08 11:09:34;;;;;;;11.53;7.60;;;;;;;2.68;42.90;97996.41;5051174;28;20422;-69
2024/01/08 11:12:01;;;;;;;8.17;6.20;;;;;;;2.56;42.64;97982.38;5050373;28;20537;-69
2024/01/08 11:14:28;;;;;;;9.13;6.20;;;;;;;2.61;43.06;97996.75;5053241;28;20190;-66
2024/01/08 11:16:54;;;;;;;5.63;4.27;;;;;;;2.64;43.27;97987.16;5060042;28;20472;-67
2024/01/08 11:19:19;;;;;;;9.43;6.30;;;;;;;2.72;42.70;97984.97;5050923;28;21080;-68
2024/01/08 11:21:49;;;;;;;12.03;6.33;;;;;;;2.78;43.57;97987.19;5041999;28;20206;-70
2024/01/08 11:24:14;;;;;;;9.30;5.80;;;;;;;2.69;43.16;97983.38;5050199;28;20286;-68
2024/01/08 11:26:44;;;;;;;12.50;7.30;;;;;;;2.79;43.31;97983.69;5043793;28;20411;-68
2024/01/08 11:29:10;;;;;;;11.63;7.20;;;;;;;2.81;43.40;97981.03;5045501;28;20179;-68
2024/01/08 11:31:45;;;;;;;9.90;6.23;;;;;;;2.92;43.29;97984.69;5024890;28;20557;-68
2024/01/08 11:34:48;;;;;;;6.07;5.27;;;;;;;3.00;43.08;97981.69;5061567;28;20934;-68
2024/01/08 11:37:31;;;;;;;8.77;5.40;;;;;;;2.98;42.81;97977.50;5048463;28;20469;-68
2024/01/08 11:40:13;;;;;;;8.53;5.70;;;;;;;2.94;42.61;97978.59;5057793;28;20419;-70
2024/01/08 11:42:39;;;;;;;6.93;4.70;;;;;;;2.99;42.61;97979.19;5040732;28;20481;-68